Date,TemperatureHighF,TemperatureAvgF,TemperatureLowF,DewpointHighF,DewpointAvgF,DewpointLowF,HumidityHigh,HumidityAvg,HumidityLow,PressureMaxIn,PressureMinIn,WindSpeedMaxMPH,WindSpeedAvgMPH,GustSpeedMaxMPH,PrecipitationSumIn
2013-8-1,79.4,67.0,58.6,66.0,63.1,58.0,97,88,63,29.99,29.80,6,1,19,0.23
2013-8-2,82.4,71.1,60.3,66.0,59.7,54.0,99,72,38,29.81,29.76,14,2,14,0.00
2013-8-3,79.4,69.1,60.8,62.0,57.8,53.0,96,69,41,29.83,29.76,8,2,17,0.21
2013-8-4,79.1,66.4,55.7,62.0,55.4,50.0,96,70,38,29.93,29.79,4,1,15,0.01
2013-8-5,73.9,61.8,48.1,54.0,48.4,37.0,93,67,30,30.04,29.93,8,1,17,0.00
2013-8-6,79.3,63.3,48.8,57.0,51.9,48.0,97,71,34,30.11,30.04,6,1,11,0.00
2013-8-7,79.9,69.4,55.5,64.0,60.0,54.0,95,74,52,30.11,29.98,10,2,17,0.00
2013-8-8,86.5,76.5,70.1,70.0,67.5,63.0,93,74,55,29.98,29.89,10,2,13,0.00
2013-8-9,79.2,73.5,67.6,74.0,71.4,67.0,98,93,75,29.92,29.74,6,1,8,0.16
2013-8-10,81.1,69.9,55.0,67.0,54.5,46.0,98,63,31,30.02,29.78,7,1,13,0.00
2013-8-11,81.6,66.9,53.9,60.0,55.3,51.0,97,70,35,30.07,29.95,9,1,11,0.00
2013-8-12,82.6,68.0,53.2,64.0,57.6,51.0,95,72,43,30.00,29.87,10,2,12,0.00
2013-8-13,74.3,66.2,59.3,66.0,62.6,58.0,97,88,69,29.87,29.65,9,1,13,0.21
2013-8-14,73.3,62.9,53.2,58.0,51.7,48.0,93,68,47,29.96,29.68,8,2,15,0.00
2013-8-15,78.0,62.1,47.9,56.0,50.5,47.0,98,70,37,30.08,29.96,8,1,14,0.00
2013-8-16,80.8,65.5,50.3,60.0,54.7,49.0,97,72,41,30.19,30.07,6,1,11,0.00
2013-8-17,78.4,65.3,54.5,62.0,58.3,54.0,98,80,53,30.29,30.20,6,1,12,0.00
2013-8-18,80.1,66.0,54.3,65.0,59.5,54.0,98,81,47,30.26,30.06,8,1,11,0.00
2013-8-19,85.0,69.2,55.7,66.0,60.6,55.0,98,77,42,30.07,29.92,10,2,12,0.00
2013-8-20,89.7,71.9,56.0,66.0,60.8,55.0,98,72,33,30.07,29.98,8,2,12,0.00
2013-8-21,89.2,73.8,59.1,69.0,63.6,58.0,97,74,42,30.13,29.96,13,2,14,0.00
2013-8-22,89.4,72.7,60.8,72.0,64.8,60.0,97,79,45,29.99,29.78,9,2,13,0.20
2013-8-23,72.7,63.8,53.5,65.0,56.3,52.0,99,79,51,30.18,29.87,10,2,15,0.01
2013-8-24,78.7,61.7,47.4,59.0,52.0,47.0,99,76,37,30.33,30.18,8,1,12,0.01
2013-8-25,83.0,65.2,48.2,62.0,55.7,48.0,98,75,39,30.37,30.10,7,1,12,0.02
2013-8-26,77.7,70.3,63.3,71.0,66.0,62.0,97,86,69,30.11,29.84,6,1,10,0.55
2013-8-27,85.9,73.3,66.8,72.0,68.7,66.0,99,87,54,29.89,29.83,5,1,7,0.01
2013-8-28,85.8,71.9,62.6,72.0,66.9,62.0,99,86,54,29.92,29.81,4,1,9,0.01
2013-8-29,82.3,71.3,62.8,69.0,65.8,62.0,99,84,58,30.03,29.92,7,1,9,0.00
2013-8-30,88.1,74.8,63.0,71.0,66.8,63.0,98,78,52,29.98,29.74,8,2,14,0.00
2013-8-31,78.1,72.4,68.7,74.0,70.3,67.0,98,93,83,29.78,29.71,5,1,9,0.37